Willisville, Illinois
Current Conditions -  °F | °C
As of 3:15 AM on Monday 22 Dec 2014 (Local Time) from KSAR Reporting Station
Overcast Overcast  
Wind Chill: 33°   Ceiling: 5500
Heat Index: 39°   Visibility: 10mi
Dew Point: 31°   Wind: 8mph
Humidity: 74%   Direction: 120°ESE
Pressure: 29.88"   Gusts: NA
Location:  37.98°N, 89.59°W
Report Text: KSAR 220915Z AUTO 12007KT 10SM BKN055 OVC070 04/00 A2988 RMK AO2 T00391004
Loading
Personal Weather Stations






























Interactive Weather Map New forecast layout! Learn more

10-Day Weather Forecast

Advertisements
Track Severe Weather on mobile